createdAt,value
2023-03-27T00:00:32.317Z,25.00
2023-03-27T00:03:17.819Z,24.80
2023-03-27T00:06:16.524Z,25.40
2023-03-27T00:09:03.765Z,25.30
2023-03-27T00:11:50.002Z,25.30
2023-03-27T00:14:36.391Z,25.40
2023-03-27T00:17:21.614Z,25.50
2023-03-27T00:20:07.872Z,25.70
2023-03-27T00:22:56.452Z,25.90
2023-03-27T00:25:47.788Z,25.80
2023-03-27T00:28:34.184Z,26.10
2023-03-27T00:31:22.049Z,26.20
2023-03-27T00:34:07.811Z,26.00
2023-03-27T00:36:53.767Z,25.90
2023-03-27T00:39:40.706Z,25.60
2023-03-27T00:42:26.385Z,25.50
2023-03-27T00:45:16.475Z,25.30
2023-03-27T00:48:05.538Z,25.00
2023-03-27T00:50:52.846Z,25.10
2023-03-27T00:53:44.150Z,25.20
2023-03-27T00:56:30.624Z,25.30
2023-03-27T00:59:23.238Z,25.20
2023-03-27T01:02:09.730Z,25.20
2023-03-27T01:04:56.708Z,25.40
2023-03-27T01:08:00.040Z,25.60
2023-03-27T01:10:58.131Z,26.00
2023-03-27T01:14:21.350Z,26.40
2023-03-27T01:17:13.028Z,27.10
2023-03-27T01:20:18.069Z,27.60
2023-03-27T01:23:36.399Z,27.90
2023-03-27T01:26:44.181Z,28.70
2023-03-27T01:29:53.672Z,29.00
2023-03-27T01:33:04.739Z,29.40
2023-03-27T01:36:13.654Z,29.60
2023-03-27T01:39:26.313Z,29.20
2023-03-27T01:42:18.397Z,29.10
2023-03-27T01:45:15.787Z,28.90
2023-03-27T01:48:31.517Z,28.90
2023-03-27T01:51:32.978Z,28.50
2023-03-27T01:54:21.899Z,28.80
2023-03-27T01:57:16.022Z,29.20
2023-03-27T02:00:19.463Z,29.30
2023-03-27T02:03:27.043Z,29.60
2023-03-27T02:06:26.603Z,28.80
2023-03-27T02:09:22.806Z,28.40
2023-03-27T02:12:20.158Z,28.40
2023-03-27T02:15:23.833Z,28.40
2023-03-27T02:18:19.159Z,28.30
2023-03-27T02:21:06.129Z,28.10
2023-03-27T02:23:51.642Z,27.30
2023-03-27T02:26:37.794Z,27.50
2023-03-27T02:29:41.885Z,27.90
2023-03-27T02:33:09.123Z,28.90
2023-03-27T02:36:21.602Z,29.50
2023-03-27T02:39:33.903Z,29.50
2023-03-27T02:42:42.033Z,30.00
2023-03-27T02:45:49.135Z,30.30
2023-03-27T02:49:05.227Z,30.20
2023-03-27T02:51:57.734Z,30.90
2023-03-27T02:54:49.101Z,30.60
2023-03-27T02:57:41.861Z,30.10
2023-03-27T03:00:49.056Z,28.70
2023-03-27T03:03:53.702Z,29.40
2023-03-27T03:06:42.152Z,28.70
2023-03-27T03:09:32.862Z,27.10
2023-03-27T03:12:18.450Z,26.20
2023-03-27T03:15:04.927Z,25.00
2023-03-27T03:17:52.885Z,24.90
2023-03-27T03:20:38.823Z,24.20
2023-03-27T03:23:24.730Z,24.40
2023-03-27T03:26:09.957Z,25.00
2023-03-27T03:29:01.714Z,25.00
2023-03-27T03:31:48.581Z,25.40
2023-03-27T03:34:36.516Z,25.10
2023-03-27T03:37:21.975Z,26.00
2023-03-27T03:40:12.112Z,26.00
2023-03-27T03:42:58.219Z,26.00
2023-03-27T03:45:46.394Z,26.60
2023-03-27T03:48:34.296Z,27.20
2023-03-27T03:51:19.783Z,27.50
2023-03-27T03:54:06.731Z,28.00
2023-03-27T03:56:52.479Z,28.50
2023-03-27T03:59:37.970Z,28.90
2023-03-27T04:02:29.821Z,29.30
2023-03-27T04:05:16.124Z,29.50
2023-03-27T04:08:02.691Z,29.70
2023-03-27T04:10:50.702Z,29.50
2023-03-27T04:13:36.284Z,29.70
2023-03-27T04:16:22.675Z,29.60
2023-03-27T04:19:12.844Z,29.70
2023-03-27T04:22:02.071Z,29.30
2023-03-27T04:24:50.557Z,29.70
2023-03-27T04:27:36.052Z,29.80
2023-03-27T04:30:23.800Z,29.90
2023-03-27T04:33:10.110Z,30.30
2023-03-27T04:36:05.581Z,30.60
2023-03-27T04:38:53.284Z,30.90
2023-03-27T04:41:38.787Z,31.20
2023-03-27T04:44:24.176Z,31.20
2023-03-27T04:47:09.768Z,31.10
2023-03-27T04:49:55.330Z,31.20
2023-03-27T04:52:42.204Z,31.30
2023-03-27T04:55:37.928Z,31.10
2023-03-27T04:58:25.816Z,30.80
2023-03-27T05:01:12.457Z,30.60
2023-03-27T05:03:58.107Z,30.00
2023-03-27T05:06:44.344Z,29.40
2023-03-27T05:09:29.898Z,28.60
2023-03-27T05:12:15.570Z,28.30
2023-03-27T05:15:04.031Z,28.10
2023-03-27T05:17:54.558Z,27.90
2023-03-27T05:20:40.364Z,27.70
2023-03-27T05:23:29.168Z,27.30
2023-03-27T05:26:14.668Z,27.20
2023-03-27T05:29:05.829Z,27.50
2023-03-27T05:31:52.057Z,28.30
2023-03-27T05:34:38.691Z,28.70
2023-03-27T05:37:26.303Z,28.70
2023-03-27T05:40:15.858Z,28.90
2023-03-27T05:43:01.614Z,29.50
2023-03-27T05:45:47.322Z,29.60
2023-03-27T05:48:33.020Z,29.30
2023-03-27T05:51:18.906Z,29.70
2023-03-27T05:54:04.690Z,29.80
2023-03-27T05:56:50.260Z,29.90
2023-03-27T05:59:35.980Z,30.00
2023-03-27T06:02:21.940Z,30.00
2023-03-27T06:05:10.724Z,29.90
2023-03-27T06:08:00.299Z,29.90
2023-03-27T06:10:46.043Z,29.90
2023-03-27T06:13:34.277Z,30.00
2023-03-27T06:16:20.937Z,29.50
2023-03-27T06:19:06.477Z,29.40
2023-03-27T06:21:51.765Z,29.20
2023-03-27T06:24:37.845Z,28.60
2023-03-27T06:27:23.254Z,27.80
2023-03-27T06:30:11.103Z,27.10
2023-03-27T06:32:58.990Z,26.10
2023-03-27T06:35:53.645Z,25.80
2023-03-27T06:38:39.888Z,25.40
2023-03-27T06:41:25.509Z,25.10
2023-03-27T06:44:11.525Z,25.20
2023-03-27T06:46:57.143Z,25.10
2023-03-27T06:49:47.657Z,23.30
2023-03-27T06:52:33.209Z,23.00
2023-03-27T06:55:20.251Z,22.80
2023-03-27T06:58:05.951Z,21.10
2023-03-27T07:00:53.314Z,20.90
2023-03-27T07:03:39.199Z,20.50
2023-03-27T07:06:26.852Z,20.30
2023-03-27T07:09:12.143Z,20.50
2023-03-27T07:11:57.638Z,20.00
2023-03-27T07:14:43.043Z,20.80
2023-03-27T07:17:38.192Z,21.00
2023-03-27T07:20:36.884Z,21.70
2023-03-27T07:23:22.114Z,22.30
2023-03-27T07:26:07.689Z,22.50
2023-03-27T07:28:52.893Z,23.00
2023-03-27T07:34:28.143Z,22.80
2023-03-27T07:37:14.610Z,23.20
2023-03-27T07:40:00.105Z,22.30
2023-03-27T07:42:46.114Z,20.40
2023-03-27T07:45:34.451Z,20.00
2023-03-27T07:48:20.346Z,19.50
2023-03-27T07:51:13.901Z,18.90
2023-03-27T15:32:53.274Z,1.00
2023-03-27T15:35:46.223Z,1.00
2023-03-27T15:38:57.214Z,1.00
2023-03-27T15:41:44.030Z,1.00
2023-03-27T15:44:32.844Z,1.00
2023-03-27T15:47:26.895Z,1.00
2023-03-27T15:50:20.362Z,1.00
2023-03-27T15:53:05.812Z,1.00
2023-03-27T15:55:55.477Z,1.00
2023-03-27T15:58:48.369Z,1.00
2023-03-27T16:01:45.292Z,1.40
2023-03-27T16:04:49.962Z,1.80
2023-03-27T16:07:47.173Z,2.50
2023-03-27T16:10:37.409Z,3.60
2023-03-27T16:13:27.541Z,3.80
2023-03-27T16:16:25.246Z,4.20
2023-03-27T16:19:14.722Z,5.60
2023-03-27T16:22:00.040Z,6.90
2023-03-27T16:24:47.831Z,7.90
2023-03-27T16:27:48.329Z,16.60
2023-03-27T16:30:39.760Z,22.20
2023-03-27T16:33:27.702Z,28.40
2023-03-27T16:36:19.856Z,29.50
2023-03-27T16:39:09.909Z,30.00
2023-03-27T16:41:58.220Z,25.80
2023-03-27T16:44:44.799Z,25.30
2023-03-27T16:47:30.486Z,24.70
2023-03-27T16:50:19.895Z,25.40
2023-03-27T16:53:05.635Z,25.90
2023-03-27T16:55:54.153Z,24.80
2023-03-27T16:58:40.107Z,25.50
2023-03-27T17:01:26.123Z,23.80
2023-03-27T17:04:12.191Z,22.00
2023-03-27T17:06:59.744Z,20.70
2023-03-27T17:09:47.838Z,19.80
2023-03-27T17:12:33.307Z,19.20
2023-03-27T17:15:18.850Z,18.90
2023-03-27T17:18:05.416Z,16.90
2023-03-27T17:20:54.499Z,16.10
2023-03-27T17:23:43.443Z,16.70
2023-03-27T17:26:31.840Z,16.90
2023-03-27T17:29:18.008Z,16.40
2023-03-27T17:32:03.579Z,17.10
2023-03-27T17:34:52.117Z,18.70
2023-03-27T17:37:37.565Z,18.70
2023-03-27T17:40:26.067Z,18.70
2023-03-27T17:43:12.470Z,18.80
2023-03-27T17:45:58.235Z,18.70
2023-03-27T17:48:44.682Z,19.10
2023-03-27T17:51:34.173Z,19.50
2023-03-27T17:54:22.336Z,19.30
2023-03-27T17:57:08.322Z,20.40
2023-03-27T17:59:54.383Z,20.20
2023-03-27T18:02:43.685Z,20.40
2023-03-27T18:05:29.294Z,20.50
2023-03-27T18:08:19.750Z,20.90
2023-03-27T18:11:10.115Z,20.70
2023-03-27T18:13:58.036Z,21.20
2023-03-27T18:16:43.590Z,21.50
2023-03-27T18:19:29.796Z,22.40
2023-03-27T18:22:17.666Z,22.70
2023-03-27T18:25:04.859Z,22.60
2023-03-27T18:27:50.592Z,22.60
2023-03-27T18:30:36.372Z,22.70
2023-03-27T18:33:24.621Z,21.70
2023-03-27T18:36:10.811Z,20.60
2023-03-27T18:38:57.167Z,20.30
2023-03-27T18:41:42.421Z,19.90
2023-03-27T18:44:27.907Z,19.10
2023-03-27T18:47:13.149Z,19.70
2023-03-27T18:50:00.762Z,20.40
2023-03-27T18:52:46.139Z,21.40
2023-03-27T18:55:32.387Z,22.70
2023-03-27T18:58:18.887Z,24.10
2023-03-27T19:01:09.547Z,25.60
2023-03-27T19:03:57.210Z,26.50
2023-03-27T19:06:46.465Z,26.60
2023-03-27T19:09:41.336Z,26.60
2023-03-27T19:12:30.049Z,27.20
2023-03-27T19:15:20.178Z,27.00
2023-03-27T19:18:06.702Z,27.50
2023-03-27T19:20:56.014Z,27.60
2023-03-27T19:23:42.259Z,27.20
2023-03-27T19:26:27.649Z,26.90
2023-03-27T19:29:15.410Z,26.70
2023-03-27T19:32:01.191Z,26.70
2023-03-27T19:34:47.383Z,27.00
2023-03-27T19:37:33.563Z,26.60
2023-03-27T19:40:18.975Z,26.70
2023-03-27T19:43:04.234Z,26.70
2023-03-27T19:46:14.978Z,27.20
2023-03-27T19:49:04.093Z,28.00
2023-03-27T19:51:49.295Z,28.30
2023-03-27T19:54:34.942Z,28.90
2023-03-27T19:57:20.992Z,29.60
2023-03-27T20:00:12.846Z,30.00
2023-03-27T20:02:58.630Z,30.30
2023-03-27T20:05:49.933Z,29.80
2023-03-27T20:08:38.317Z,29.60
2023-03-27T20:11:26.969Z,29.30
2023-03-27T20:14:13.216Z,29.30
2023-03-27T20:16:58.833Z,29.30
2023-03-27T20:19:49.786Z,28.90
2023-03-27T20:22:46.366Z,28.90
2023-03-27T20:25:40.814Z,29.10
2023-03-27T20:28:27.189Z,29.70
2023-03-27T20:31:13.194Z,29.80
2023-03-27T20:33:58.846Z,30.00
2023-03-27T20:36:47.064Z,30.30
2023-03-27T20:39:33.536Z,30.10
2023-03-27T20:42:23.146Z,30.80
2023-03-27T20:45:11.983Z,30.80
2023-03-27T20:48:03.908Z,30.80
2023-03-27T20:50:52.922Z,30.80
2023-03-27T20:53:41.352Z,31.00
2023-03-27T20:56:27.125Z,30.90
2023-03-27T20:59:15.090Z,30.80
2023-03-27T21:02:03.498Z,30.10
2023-03-27T21:04:49.945Z,30.70
2023-03-27T21:07:38.039Z,30.30
2023-03-27T21:10:24.910Z,30.30
2023-03-27T21:13:10.416Z,30.00
2023-03-27T21:15:56.374Z,30.00
2023-03-27T21:18:42.139Z,30.00
2023-03-27T21:21:33.185Z,30.10
2023-03-27T21:24:19.802Z,30.20
2023-03-27T21:27:07.512Z,30.10
2023-03-27T21:29:55.387Z,30.00
2023-03-27T21:32:41.301Z,30.70
2023-03-27T21:35:26.905Z,30.70
2023-03-27T21:38:13.866Z,31.20
2023-03-27T21:41:02.641Z,31.70
2023-03-27T21:43:48.146Z,32.20
2023-03-27T21:46:36.774Z,32.70
2023-03-27T21:49:23.104Z,33.10
2023-03-27T21:52:08.620Z,33.30
2023-03-27T21:55:02.927Z,33.90
2023-03-27T21:57:49.401Z,34.20
2023-03-27T22:00:34.884Z,34.50
2023-03-27T22:03:22.272Z,34.70
2023-03-27T22:06:13.410Z,34.20
2023-03-27T22:09:01.273Z,33.90
2023-03-27T22:11:48.974Z,33.70
2023-03-27T22:14:37.125Z,33.50
2023-03-27T22:17:25.365Z,33.40
2023-03-27T22:20:11.215Z,33.30
2023-03-27T22:22:57.107Z,33.30
2023-03-27T22:25:54.127Z,33.40
2023-03-27T22:28:39.274Z,33.10
2023-03-27T22:31:26.198Z,33.20
2023-03-27T22:34:14.649Z,33.30
2023-03-27T22:36:59.976Z,32.50
2023-03-27T22:39:47.387Z,32.60
2023-03-27T22:42:35.619Z,32.90
2023-03-27T22:45:23.360Z,32.40
2023-03-27T22:48:09.943Z,32.00
2023-03-27T22:50:57.005Z,32.20
2023-03-27T22:53:42.166Z,32.10
2023-03-27T22:56:27.646Z,32.10
2023-03-27T22:59:13.996Z,32.00
2023-03-27T23:01:59.604Z,31.80
2023-03-27T23:04:45.162Z,31.80
2023-03-27T23:07:31.681Z,30.90
2023-03-27T23:10:19.331Z,30.70
2023-03-27T23:13:05.178Z,30.50
2023-03-27T23:15:51.961Z,30.80
2023-03-27T23:18:38.030Z,30.70
2023-03-27T23:21:25.466Z,30.80
2023-03-27T23:24:10.988Z,30.80
2023-03-27T23:26:56.216Z,30.70
2023-03-27T23:29:41.877Z,30.10
2023-03-27T23:32:37.533Z,29.70
2023-03-27T23:35:23.471Z,29.30
2023-03-27T23:38:11.435Z,29.60
2023-03-27T23:40:58.346Z,29.40
2023-03-27T23:43:47.094Z,29.10
2023-03-27T23:46:35.167Z,28.60
2023-03-27T23:49:20.634Z,28.30
2023-03-27T23:52:06.557Z,28.10
2023-03-27T23:54:52.170Z,66.10
2023-03-27T23:57:37.788Z,95.20
